createdAt,value
2022-12-11T00:04:43.224Z,1.23
2022-12-11T00:09:35.929Z,1.40
2022-12-11T00:14:30.840Z,1.42
2022-12-11T00:19:24.745Z,1.52
2022-12-11T00:24:18.562Z,1.27
2022-12-11T00:29:14.874Z,1.35
2022-12-11T00:34:08.694Z,1.42
2022-12-11T00:39:03.549Z,1.30
2022-12-11T00:43:57.761Z,1.45
2022-12-11T00:48:50.925Z,1.35
2022-12-11T00:53:44.982Z,1.58
2022-12-11T00:58:38.621Z,1.40
2022-12-11T01:03:32.073Z,1.42
2022-12-11T01:08:25.868Z,1.40
2022-12-11T01:13:19.266Z,1.63
2022-12-11T01:18:16.086Z,1.60
2022-12-11T01:23:11.259Z,1.52
2022-12-11T01:28:05.353Z,1.48
2022-12-11T01:32:58.822Z,1.77
2022-12-11T01:37:53.166Z,1.65
2022-12-11T01:42:45.974Z,1.55
2022-12-11T01:47:38.413Z,1.80
2022-12-11T01:52:32.355Z,1.63
2022-12-11T01:57:26.829Z,1.50
2022-12-11T02:02:24.851Z,1.88
2022-12-11T02:07:18.970Z,1.58
2022-12-11T02:12:17.293Z,1.40
2022-12-11T02:17:23.379Z,1.52
2022-12-11T02:22:57.846Z,1.50
2022-12-11T02:28:14.808Z,1.48
2022-12-11T02:33:09.508Z,1.08
2022-12-11T02:38:18.930Z,1.23
2022-12-11T02:43:32.710Z,1.23
2022-12-11T02:49:05.456Z,1.30
2022-12-11T02:54:00.361Z,0.98
2022-12-11T02:59:19.198Z,1.17
2022-12-11T03:04:12.333Z,1.23
2022-12-11T03:09:07.823Z,1.10
2022-12-11T03:14:03.217Z,0.90
2022-12-11T03:19:35.427Z,0.98
2022-12-11T03:24:40.350Z,1.20
2022-12-11T03:29:39.076Z,1.25
2022-12-11T03:34:42.836Z,0.85
2022-12-11T03:39:44.781Z,1.10
2022-12-11T03:44:39.631Z,0.90
2022-12-11T03:49:39.098Z,1.35
2022-12-11T03:54:33.136Z,1.30
2022-12-11T03:59:28.360Z,1.30
2022-12-11T04:04:21.988Z,1.50
2022-12-11T04:09:14.733Z,1.20
2022-12-11T04:14:28.645Z,1.17
2022-12-11T04:19:40.867Z,1.35
2022-12-11T04:24:34.111Z,1.08
2022-12-11T04:29:27.902Z,1.13
2022-12-11T04:34:21.191Z,1.20
2022-12-11T04:39:15.070Z,1.20
2022-12-11T04:44:09.614Z,1.00
2022-12-11T04:49:04.174Z,1.25
2022-12-11T04:54:02.698Z,1.20
2022-12-11T04:58:56.348Z,1.25
2022-12-11T05:03:50.386Z,1.20
2022-12-11T05:08:45.758Z,1.30
2022-12-11T05:13:39.323Z,1.48
2022-12-11T05:18:32.881Z,1.70
2022-12-11T05:23:26.752Z,1.40
2022-12-11T05:28:19.891Z,1.23
2022-12-11T05:33:14.388Z,1.30
2022-12-11T05:38:08.759Z,1.85
2022-12-11T05:43:01.822Z,1.73
2022-12-11T05:47:55.563Z,2.30
2022-12-11T05:52:49.540Z,2.13
2022-12-11T05:57:43.631Z,2.25
2022-12-11T06:02:37.918Z,2.17
2022-12-11T06:07:31.955Z,2.70
2022-12-11T06:12:25.712Z,2.45
2022-12-11T06:17:20.161Z,2.92
2022-12-11T06:22:14.030Z,2.58
2022-12-11T06:27:07.857Z,2.80
2022-12-11T06:32:01.615Z,2.28
2022-12-11T06:36:55.174Z,2.78
2022-12-11T06:41:49.089Z,2.28
2022-12-11T06:46:42.585Z,2.72
2022-12-11T06:51:36.377Z,2.33
2022-12-11T06:56:29.069Z,2.60
2022-12-11T07:01:27.664Z,2.50
2022-12-11T07:06:21.254Z,2.25
2022-12-11T07:11:16.824Z,2.22
2022-12-11T07:16:12.996Z,2.67
2022-12-11T07:21:07.324Z,2.50
2022-12-11T07:26:05.070Z,2.80
2022-12-11T07:30:58.387Z,2.35
2022-12-11T07:35:52.690Z,2.63
2022-12-11T07:40:45.875Z,3.03
2022-12-11T07:45:39.989Z,3.03
2022-12-11T07:50:38.148Z,3.40
2022-12-11T07:55:37.924Z,3.30
2022-12-11T08:00:31.358Z,3.63
2022-12-11T08:05:25.162Z,4.15
2022-12-11T08:10:18.553Z,4.47
2022-12-11T08:15:13.216Z,4.65
2022-12-11T08:20:09.042Z,4.70
2022-12-11T08:25:03.681Z,4.55
2022-12-11T08:29:57.263Z,4.80
2022-12-11T08:34:52.753Z,4.85
2022-12-11T08:39:47.538Z,5.07
2022-12-11T08:44:40.981Z,5.47
2022-12-11T08:49:34.889Z,5.35
2022-12-11T08:54:28.655Z,4.45
2022-12-11T08:59:21.809Z,5.03
2022-12-11T09:04:15.654Z,4.72
2022-12-11T09:09:08.614Z,5.30
2022-12-11T09:14:07.315Z,4.93
2022-12-11T09:19:01.474Z,4.93
2022-12-11T09:23:56.655Z,5.00
2022-12-11T09:28:51.394Z,5.15
2022-12-11T09:33:45.582Z,4.72
2022-12-11T09:38:38.362Z,5.22
2022-12-11T09:43:54.270Z,5.18
2022-12-11T09:48:50.155Z,5.07
2022-12-11T09:53:44.078Z,5.18
2022-12-11T09:58:51.083Z,5.85
2022-12-11T10:03:52.891Z,5.65
2022-12-11T10:14:18.607Z,5.55
2022-12-11T10:19:19.741Z,5.25
2022-12-11T10:25:07.567Z,5.35
2022-12-11T10:29:41.951Z,5.63
2022-12-11T10:34:37.831Z,5.50
2022-12-11T10:39:31.546Z,5.18
2022-12-11T10:44:36.900Z,5.00
2022-12-11T10:49:33.199Z,4.55
2022-12-11T10:54:42.081Z,4.45
2022-12-11T10:59:43.428Z,5.85
2022-12-11T11:04:39.779Z,8.35
2022-12-11T11:10:06.453Z,8.77
2022-12-11T11:15:28.348Z,7.38
2022-12-11T11:21:01.153Z,6.63
2022-12-11T11:26:18.725Z,6.45
2022-12-11T11:31:54.255Z,6.10
2022-12-11T11:36:58.241Z,5.72
2022-12-11T11:42:16.201Z,6.45
2022-12-11T11:47:18.200Z,7.72
2022-12-11T11:52:38.798Z,6.53
2022-12-11T11:58:11.262Z,5.97
2022-12-11T12:03:21.307Z,5.55
2022-12-11T12:08:21.104Z,5.45
2022-12-11T12:13:52.670Z,5.50
2022-12-11T12:19:11.702Z,4.97
2022-12-11T12:24:25.045Z,4.53
2022-12-11T12:29:34.177Z,4.30
2022-12-11T12:34:33.045Z,4.60
2022-12-11T12:39:53.202Z,4.00
2022-12-11T12:45:09.018Z,3.92
2022-12-11T12:50:05.887Z,3.70
2022-12-11T12:55:18.947Z,3.65
2022-12-11T13:00:13.717Z,3.00
2022-12-11T13:05:20.099Z,3.10
2022-12-11T13:10:30.249Z,3.05
2022-12-11T13:15:35.438Z,3.00
2022-12-11T13:20:31.648Z,2.58
2022-12-11T13:25:31.315Z,2.60
2022-12-11T13:30:26.675Z,2.72
2022-12-11T13:35:20.222Z,2.30
2022-12-11T13:40:21.992Z,2.53
2022-12-11T13:45:43.598Z,2.20
2022-12-11T13:50:55.741Z,2.53
2022-12-11T13:55:58.653Z,2.28
2022-12-11T14:01:12.926Z,2.13
2022-12-11T14:06:19.159Z,2.40
2022-12-11T14:11:24.111Z,2.50
2022-12-11T14:16:25.654Z,2.10
2022-12-11T14:21:24.213Z,1.95
2022-12-11T14:26:29.756Z,1.75
2022-12-11T14:31:36.399Z,2.45
2022-12-11T14:36:32.462Z,1.98
2022-12-11T14:41:50.048Z,2.10
2022-12-11T14:47:13.533Z,1.70
2022-12-11T14:52:15.485Z,1.80
2022-12-11T14:57:09.079Z,2.17
2022-12-11T15:02:21.134Z,1.90
2022-12-11T15:07:21.667Z,1.80
2022-12-11T15:12:17.714Z,2.10
2022-12-11T15:17:15.790Z,2.65
2022-12-11T15:22:13.346Z,2.95
2022-12-11T15:27:07.082Z,3.50
2022-12-11T15:32:22.080Z,3.67
2022-12-11T15:37:29.207Z,3.65
2022-12-11T15:42:29.689Z,3.33
2022-12-11T15:47:26.466Z,4.00
2022-12-11T15:52:20.117Z,3.60
2022-12-11T15:57:16.975Z,3.63
2022-12-11T16:02:12.287Z,3.15
2022-12-11T16:07:06.860Z,3.53
2022-12-11T16:12:01.201Z,3.47
2022-12-11T16:16:54.791Z,3.45
2022-12-11T16:21:48.110Z,3.35
2022-12-11T16:26:41.563Z,3.83
2022-12-11T16:31:34.324Z,3.55
2022-12-11T16:36:29.177Z,4.65
2022-12-11T16:41:25.097Z,4.18
2022-12-11T16:46:20.465Z,3.03
2022-12-11T16:51:14.503Z,2.35
2022-12-11T16:56:09.383Z,2.70
2022-12-11T17:01:02.384Z,2.42
2022-12-11T17:05:56.782Z,2.30
2022-12-11T17:10:49.818Z,2.53
2022-12-11T17:15:43.618Z,2.25
2022-12-11T17:20:40.660Z,2.10
2022-12-11T17:25:34.815Z,2.50
2022-12-11T17:30:29.041Z,2.05
2022-12-11T17:35:23.654Z,2.30
2022-12-11T17:40:19.233Z,2.40
2022-12-11T17:45:12.896Z,1.83
2022-12-11T17:50:07.463Z,3.85
2022-12-11T17:55:01.231Z,5.32
2022-12-11T17:59:55.703Z,13.20
2022-12-11T18:04:49.466Z,15.70
2022-12-11T18:09:43.330Z,11.98
2022-12-11T18:14:37.841Z,7.20
2022-12-11T18:19:32.588Z,6.82
2022-12-11T18:24:31.966Z,6.03
2022-12-11T18:29:25.075Z,6.80
2022-12-11T18:34:18.878Z,5.75
2022-12-11T18:39:16.846Z,6.45
2022-12-11T18:44:10.921Z,5.95
2022-12-11T18:49:04.888Z,5.28
2022-12-11T18:53:58.491Z,4.88
2022-12-11T18:58:52.517Z,4.70
2022-12-11T19:03:45.808Z,5.05
2022-12-11T19:08:39.090Z,4.57
2022-12-11T19:13:32.102Z,4.72
2022-12-11T19:18:27.131Z,5.22
2022-12-11T19:23:20.967Z,4.93
2022-12-11T19:28:15.129Z,4.63
2022-12-11T19:33:08.530Z,4.75
2022-12-11T19:38:02.194Z,4.50
2022-12-11T19:42:56.418Z,4.43
2022-12-11T19:47:49.085Z,4.47
2022-12-11T19:52:47.602Z,4.78
2022-12-11T19:57:44.291Z,4.18
2022-12-11T20:02:39.206Z,5.18
2022-12-11T20:07:33.538Z,4.88
2022-12-11T20:12:26.495Z,5.22
2022-12-11T20:17:21.037Z,5.07
2022-12-11T20:22:14.224Z,5.20
2022-12-11T20:27:09.002Z,4.95
2022-12-11T20:32:02.879Z,4.57
2022-12-11T20:36:56.849Z,4.70
2022-12-11T20:41:51.342Z,4.35
2022-12-11T20:46:44.825Z,4.57
2022-12-11T20:51:38.022Z,4.88
2022-12-11T20:56:32.479Z,4.10
2022-12-11T21:01:29.083Z,4.80
2022-12-11T21:06:34.599Z,4.00
2022-12-11T21:11:28.861Z,4.72
2022-12-11T21:16:22.543Z,4.72
2022-12-11T21:21:20.052Z,4.05
2022-12-11T21:26:13.943Z,4.18
2022-12-11T21:31:11.072Z,4.35
2022-12-11T21:36:06.549Z,3.75
2022-12-11T21:41:27.826Z,3.97
2022-12-11T21:46:24.359Z,3.78
2022-12-11T21:51:21.778Z,3.50
2022-12-11T21:56:18.755Z,3.75
2022-12-11T22:01:15.774Z,3.50
2022-12-11T22:06:08.807Z,3.50
2022-12-11T22:11:03.025Z,3.65
2022-12-11T22:15:57.575Z,3.53
2022-12-11T22:20:50.523Z,3.70
2022-12-11T22:25:44.222Z,3.47
2022-12-11T22:30:39.168Z,3.97
2022-12-11T22:35:33.396Z,3.58
2022-12-11T22:40:28.847Z,3.78
2022-12-11T22:45:24.357Z,3.53
2022-12-11T22:50:18.579Z,3.60
2022-12-11T22:55:13.289Z,3.83
2022-12-11T23:00:12.378Z,3.55
2022-12-11T23:05:09.347Z,3.28
2022-12-11T23:10:05.691Z,2.97
2022-12-11T23:15:03.832Z,3.50
2022-12-11T23:19:59.325Z,3.53
2022-12-11T23:24:53.969Z,3.33
2022-12-11T23:29:47.173Z,3.20
2022-12-11T23:34:40.543Z,3.65
2022-12-11T23:39:34.469Z,3.53
2022-12-11T23:44:27.999Z,3.05
2022-12-11T23:49:22.429Z,3.10
2022-12-11T23:54:15.889Z,3.00
2022-12-11T23:59:13.782Z,3.17
